createdAt,value
2022-08-08T00:01:16.264Z,2.28
2022-08-08T00:04:49.208Z,3.42
2022-08-08T00:08:33.939Z,2.38
2022-08-08T00:12:07.569Z,3.38
2022-08-08T00:15:24.516Z,2.92
2022-08-08T00:18:48.146Z,3.25
2022-08-08T00:22:12.264Z,2.55
2022-08-08T00:25:44.841Z,2.67
2022-08-08T00:28:59.320Z,3.10
2022-08-08T00:32:35.539Z,3.45
2022-08-08T00:35:59.951Z,2.95
2022-08-08T00:40:43.835Z,2.58
2022-08-08T00:42:47.375Z,4.47
2022-08-08T00:49:24.135Z,2.28
2022-08-08T00:53:15.718Z,2.85
2022-08-08T00:56:50.496Z,2.90
2022-08-08T01:04:01.662Z,2.72
2022-08-08T01:07:54.144Z,2.67
2022-08-08T01:11:25.156Z,3.07
2022-08-08T01:15:43.501Z,2.67
2022-08-08T01:19:51.937Z,4.72
2022-08-08T01:24:06.347Z,2.50
2022-08-08T01:28:14.957Z,3.38
2022-08-08T01:32:15.915Z,2.58
2022-08-08T01:35:41.108Z,2.67
2022-08-08T01:39:23.982Z,4.15
2022-08-08T01:43:19.586Z,2.92
2022-08-08T01:46:52.184Z,2.72
2022-08-08T01:50:27.008Z,2.53
2022-08-08T01:55:16.858Z,3.40
2022-08-08T01:58:12.237Z,3.42
2022-08-08T02:01:54.639Z,2.50
2022-08-08T02:05:55.684Z,3.33
2022-08-08T02:09:15.820Z,2.63
2022-08-08T02:12:37.190Z,2.33
2022-08-08T02:16:01.807Z,2.70
2022-08-08T02:20:08.252Z,2.83
2022-08-08T02:23:35.141Z,4.03
2022-08-08T02:27:13.013Z,2.78
2022-08-08T02:30:34.097Z,2.45
2022-08-08T02:34:14.874Z,2.80
2022-08-08T02:38:25.711Z,3.30
2022-08-08T02:42:03.806Z,2.25
2022-08-08T02:45:51.361Z,2.72
2022-08-08T02:49:27.693Z,3.03
2022-08-08T02:53:17.241Z,3.10
2022-08-08T02:57:00.018Z,2.67
2022-08-08T03:00:50.705Z,2.40
2022-08-08T03:05:04.610Z,2.53
2022-08-08T03:08:34.338Z,2.83
2022-08-08T03:12:06.035Z,3.35
2022-08-08T03:18:53.884Z,2.90
2022-08-08T03:22:00.213Z,2.45
2022-08-08T03:25:18.063Z,3.25
2022-08-08T03:28:37.970Z,2.72
2022-08-08T03:32:06.024Z,2.20
2022-08-08T03:35:12.927Z,2.67
2022-08-08T03:38:54.565Z,2.28
2022-08-08T03:42:28.741Z,3.25
2022-08-08T03:46:04.827Z,2.17
2022-08-08T03:49:30.909Z,2.35
2022-08-08T03:55:57.343Z,2.30
2022-08-08T03:58:56.833Z,2.40
2022-08-08T04:02:31.501Z,3.35
2022-08-08T04:05:30.221Z,2.95
2022-08-08T04:08:42.411Z,3.60
2022-08-08T04:12:01.079Z,2.45
2022-08-08T04:15:25.085Z,2.65
2022-08-08T04:18:48.535Z,2.65
2022-08-08T04:25:06.724Z,3.08
2022-08-08T04:28:40.397Z,3.22
2022-08-08T04:31:59.822Z,3.55
2022-08-08T04:35:03.341Z,2.47
2022-08-08T04:38:21.109Z,4.40
2022-08-08T04:41:26.915Z,2.92
2022-08-08T04:44:42.403Z,2.72
2022-08-08T04:47:54.673Z,3.45
2022-08-08T04:50:59.327Z,2.45
2022-08-08T04:54:38.919Z,4.22
2022-08-08T04:57:35.160Z,3.05
2022-08-08T05:00:41.710Z,2.13
2022-08-08T05:04:10.001Z,2.90
2022-08-08T05:07:18.082Z,2.67
2022-08-08T05:10:28.127Z,3.78
2022-08-08T05:13:33.734Z,2.30
2022-08-08T05:16:51.927Z,2.60
2022-08-08T05:20:12.632Z,2.28
2022-08-08T05:23:20.559Z,2.33
2022-08-08T05:26:27.468Z,2.95
2022-08-08T05:29:36.003Z,2.10
2022-08-08T05:32:43.914Z,3.10
2022-08-08T05:35:55.048Z,1.88
2022-08-08T05:39:01.769Z,2.22
2022-08-08T05:42:07.139Z,2.72
2022-08-08T05:45:25.384Z,1.60
2022-08-08T05:48:38.812Z,2.05
2022-08-08T05:51:49.676Z,2.50
2022-08-08T05:55:09.824Z,2.55
2022-08-08T05:58:17.691Z,2.50
2022-08-08T06:01:56.015Z,1.67
2022-08-08T06:04:55.211Z,1.73
2022-08-08T06:08:09.342Z,1.33
2022-08-08T06:11:16.751Z,1.83
2022-08-08T06:14:23.670Z,1.20
2022-08-08T06:17:50.267Z,1.65
2022-08-08T06:20:59.594Z,1.95
2022-08-08T06:24:23.342Z,1.00
2022-08-08T06:27:59.539Z,0.95
2022-08-08T06:31:15.658Z,1.77
2022-08-08T06:34:28.506Z,1.52
2022-08-08T06:37:43.492Z,1.25
2022-08-08T06:40:55.636Z,1.85
2022-08-08T06:44:04.815Z,1.47
2022-08-08T06:47:22.042Z,1.25
2022-08-08T06:50:32.393Z,1.98
2022-08-08T06:53:51.266Z,1.48
2022-08-08T06:57:03.778Z,0.93
2022-08-08T07:00:13.766Z,1.50
2022-08-08T07:04:36.881Z,2.03
2022-08-08T07:07:50.616Z,1.40
2022-08-08T07:11:00.020Z,2.65
2022-08-08T07:14:07.509Z,2.17
2022-08-08T07:17:31.689Z,2.95
2022-08-08T07:20:45.897Z,1.92
2022-08-08T07:24:04.789Z,2.45
2022-08-08T07:27:34.992Z,1.20
2022-08-08T07:30:50.125Z,2.95
2022-08-08T07:33:59.312Z,2.08
2022-08-08T07:37:11.589Z,1.92
2022-08-08T07:40:28.905Z,2.13
2022-08-08T07:43:42.264Z,2.42
2022-08-08T07:46:58.609Z,0.77
2022-08-08T07:50:04.193Z,2.15
2022-08-08T07:54:01.434Z,1.75
2022-08-08T07:57:26.788Z,0.70
2022-08-08T08:00:52.430Z,0.95
2022-08-08T08:04:08.059Z,0.60
2022-08-08T08:07:31.638Z,2.45
2022-08-08T08:10:39.409Z,1.10
2022-08-08T08:14:07.537Z,1.05
2022-08-08T08:17:26.638Z,2.00
2022-08-08T08:20:42.112Z,0.63
2022-08-08T08:23:51.095Z,0.77
2022-08-08T08:26:56.275Z,1.40
2022-08-08T08:30:02.703Z,0.93
2022-08-08T08:33:11.013Z,1.65
2022-08-08T08:36:21.940Z,2.17
2022-08-08T08:40:00.095Z,0.77
2022-08-08T08:42:59.395Z,0.85
2022-08-08T08:46:10.824Z,0.88
2022-08-08T08:49:22.116Z,0.47
2022-08-08T08:52:31.248Z,0.82
2022-08-08T08:55:40.126Z,1.25
2022-08-08T08:58:50.367Z,0.35
2022-08-08T09:02:18.940Z,1.23
2022-08-08T09:05:53.956Z,0.80
2022-08-08T09:09:26.466Z,0.30
2022-08-08T09:12:50.994Z,0.77
2022-08-08T09:16:02.797Z,1.35
2022-08-08T09:19:12.696Z,1.85
2022-08-08T09:22:26.139Z,0.93
2022-08-08T09:25:35.544Z,0.73
2022-08-08T09:28:54.970Z,0.63
2022-08-08T09:32:12.006Z,0.93
2022-08-08T09:35:32.354Z,0.20
2022-08-08T09:39:00.361Z,0.40
2022-08-08T09:42:20.094Z,1.30
2022-08-08T09:45:55.232Z,0.98
2022-08-08T09:49:18.019Z,0.68
2022-08-08T09:52:57.736Z,2.47
2022-08-08T09:56:04.217Z,0.73
2022-08-08T09:59:50.554Z,0.63
2022-08-08T10:02:51.846Z,0.45
2022-08-08T10:05:57.699Z,1.38
2022-08-08T10:09:02.816Z,0.73
2022-08-08T10:12:26.967Z,0.60
2022-08-08T10:15:39.283Z,1.00
2022-08-08T10:18:44.337Z,0.82
2022-08-08T10:21:55.018Z,0.75
2022-08-08T10:25:05.922Z,1.15
2022-08-08T10:28:17.330Z,0.68
2022-08-08T10:31:49.315Z,1.55
2022-08-08T10:35:01.277Z,0.90
2022-08-08T10:38:08.524Z,0.82
2022-08-08T10:41:20.269Z,0.47
2022-08-08T10:44:43.456Z,0.80
2022-08-08T10:48:00.996Z,1.00
2022-08-08T10:51:14.006Z,1.02
2022-08-08T10:54:24.824Z,1.07
2022-08-08T10:57:45.321Z,0.85
2022-08-08T11:01:03.160Z,0.90
2022-08-08T11:04:11.983Z,1.52
2022-08-08T11:07:40.593Z,0.40
2022-08-08T11:11:32.152Z,0.95
2022-08-08T11:14:52.900Z,0.90
2022-08-08T11:18:01.341Z,0.43
2022-08-08T11:21:09.883Z,0.60
2022-08-08T11:24:15.659Z,1.00
2022-08-08T11:27:29.266Z,0.38
2022-08-08T11:30:51.992Z,1.25
2022-08-08T11:34:03.075Z,0.80
2022-08-08T11:37:14.726Z,1.67
2022-08-08T11:40:26.489Z,0.52
2022-08-08T11:43:38.531Z,1.13
2022-08-08T11:46:43.296Z,0.50
2022-08-08T11:49:50.550Z,1.60
2022-08-08T11:52:56.635Z,1.77
2022-08-08T11:56:03.841Z,1.00
2022-08-08T11:59:12.454Z,0.47
2022-08-08T12:02:31.711Z,1.40
2022-08-08T12:05:38.728Z,1.02
2022-08-08T12:08:43.703Z,1.50
2022-08-08T12:11:50.492Z,0.90
2022-08-08T12:15:02.211Z,0.85
2022-08-08T12:18:27.531Z,1.60
2022-08-08T12:21:59.621Z,2.00
2022-08-08T12:25:02.231Z,2.28
2022-08-08T12:28:16.503Z,1.40
2022-08-08T12:31:38.755Z,1.50
2022-08-08T12:34:50.663Z,1.00
2022-08-08T12:38:06.215Z,0.63
2022-08-08T12:41:24.526Z,0.40
2022-08-08T12:44:41.299Z,2.20
2022-08-08T12:48:17.802Z,1.30
2022-08-08T12:51:59.118Z,0.95
2022-08-08T12:55:13.608Z,0.82
2022-08-08T12:58:20.322Z,1.08
2022-08-08T13:01:54.566Z,0.60
2022-08-08T13:05:05.927Z,0.43
2022-08-08T13:08:20.339Z,1.33
2022-08-08T13:12:27.112Z,0.50
2022-08-08T13:15:12.142Z,0.98
2022-08-08T13:21:48.959Z,0.75
2022-08-08T13:24:54.638Z,0.95
2022-08-08T13:28:00.668Z,0.95
2022-08-08T13:31:05.764Z,1.23
2022-08-08T13:34:29.471Z,1.27
2022-08-08T13:38:05.176Z,0.88
2022-08-08T13:41:07.269Z,1.15
2022-08-08T13:44:26.076Z,0.40
2022-08-08T13:47:32.249Z,0.52
2022-08-08T13:50:53.656Z,1.20
2022-08-08T13:54:01.510Z,0.50
2022-08-08T13:57:15.047Z,0.70
2022-08-08T14:00:21.734Z,0.65
2022-08-08T14:03:53.564Z,0.77
2022-08-08T14:07:03.261Z,0.77
2022-08-08T14:10:33.588Z,0.82
2022-08-08T14:14:00.311Z,0.47
2022-08-08T14:17:11.857Z,1.15
2022-08-08T14:20:57.510Z,0.55
2022-08-08T14:24:08.530Z,0.93
2022-08-08T14:27:34.122Z,1.00
2022-08-08T14:30:39.087Z,1.20
2022-08-08T14:33:50.021Z,0.75
2022-08-08T14:37:05.241Z,1.35
2022-08-08T14:40:24.695Z,0.70
2022-08-08T14:44:02.548Z,0.65
2022-08-08T14:47:01.214Z,0.55
2022-08-08T14:50:22.460Z,0.73
2022-08-08T14:53:55.757Z,0.98
2022-08-08T14:57:04.233Z,0.60
2022-08-08T15:00:10.873Z,0.45
2022-08-08T15:03:18.582Z,0.93
2022-08-08T15:06:23.376Z,1.35
2022-08-08T15:09:28.255Z,0.68
2022-08-08T15:12:32.849Z,1.45
2022-08-08T15:16:02.510Z,0.32
2022-08-08T15:19:03.295Z,0.52
2022-08-08T15:22:07.733Z,0.85
2022-08-08T15:25:17.379Z,1.48
2022-08-08T15:28:34.925Z,0.77
2022-08-08T15:32:03.642Z,0.50
2022-08-08T15:35:07.554Z,0.70
2022-08-08T15:38:13.368Z,1.10
2022-08-08T15:41:24.610Z,1.10
2022-08-08T15:44:34.428Z,1.08
2022-08-08T15:47:39.368Z,2.28
2022-08-08T15:51:06.391Z,0.55
2022-08-08T15:54:18.473Z,1.15
2022-08-08T15:57:39.940Z,1.08
2022-08-08T16:00:47.247Z,1.02
2022-08-08T16:03:55.253Z,0.45
2022-08-08T16:07:00.771Z,1.05
2022-08-08T16:13:09.812Z,0.73
2022-08-08T16:13:34.021Z,1.10
2022-08-08T16:16:46.827Z,1.20
2022-08-08T16:20:00.044Z,0.93
2022-08-08T16:23:05.793Z,1.48
2022-08-08T16:26:19.199Z,1.42
2022-08-08T16:29:37.333Z,0.65
2022-08-08T16:32:49.720Z,0.82
2022-08-08T16:35:54.328Z,1.42
2022-08-08T16:38:59.563Z,1.52
2022-08-08T16:42:05.144Z,2.30
2022-08-08T16:45:11.578Z,0.90
2022-08-08T16:48:37.058Z,1.52
2022-08-08T16:55:07.221Z,0.82
2022-08-08T16:55:27.964Z,0.85
2022-08-08T16:58:36.243Z,0.80
2022-08-08T17:01:40.644Z,0.77
2022-08-08T17:04:50.340Z,0.65
2022-08-08T17:07:54.893Z,1.85
2022-08-08T17:11:10.329Z,0.40
2022-08-08T17:14:18.979Z,1.55
2022-08-08T17:18:01.000Z,0.82
2022-08-08T17:20:51.150Z,0.82
2022-08-08T17:24:01.736Z,0.63
2022-08-08T17:27:08.865Z,0.75
2022-08-08T17:30:32.854Z,0.82
2022-08-08T17:34:37.668Z,1.17
2022-08-08T17:37:06.689Z,1.40
2022-08-08T17:40:15.213Z,0.73
2022-08-08T17:43:22.915Z,0.70
2022-08-08T17:46:42.789Z,1.27
2022-08-08T17:49:49.926Z,1.08
2022-08-08T17:52:59.406Z,0.82
2022-08-08T17:56:09.610Z,0.70
2022-08-08T17:59:30.462Z,1.20
2022-08-08T18:03:13.637Z,0.82
2022-08-08T18:06:31.278Z,0.60
2022-08-08T18:09:43.120Z,0.93
2022-08-08T18:12:49.209Z,0.50
2022-08-08T18:16:00.102Z,1.55
2022-08-08T18:19:11.284Z,0.80
2022-08-08T18:22:49.925Z,0.68
2022-08-08T18:25:40.353Z,1.08
2022-08-08T18:28:54.368Z,0.75
2022-08-08T18:32:09.605Z,0.68
2022-08-08T18:35:15.699Z,1.00
2022-08-08T18:38:21.623Z,1.35
2022-08-08T18:41:51.528Z,1.27
2022-08-08T18:45:09.154Z,0.77
2022-08-08T18:48:29.488Z,1.85
2022-08-08T18:51:52.604Z,1.10
2022-08-08T18:55:10.107Z,0.82
2022-08-08T18:58:15.793Z,0.65
2022-08-08T19:02:26.506Z,2.63
2022-08-08T19:04:48.524Z,1.95
2022-08-08T19:07:58.892Z,1.17
2022-08-08T19:11:04.984Z,0.70
2022-08-08T19:14:20.391Z,0.60
2022-08-08T19:18:30.763Z,1.25
2022-08-08T19:20:51.155Z,1.10
2022-08-08T19:23:59.514Z,0.73
2022-08-08T19:27:07.678Z,1.45
2022-08-08T19:30:24.083Z,0.57
2022-08-08T19:33:52.409Z,1.70
2022-08-08T19:36:59.259Z,1.75
2022-08-08T19:40:05.097Z,0.82
2022-08-08T19:43:13.544Z,1.20
2022-08-08T19:46:24.986Z,0.98
2022-08-08T19:49:43.072Z,0.75
2022-08-08T19:52:54.734Z,1.40
2022-08-08T19:56:07.427Z,0.95
2022-08-08T19:59:29.984Z,0.90
2022-08-08T20:02:39.820Z,1.15
2022-08-08T20:06:15.850Z,1.50
2022-08-08T20:09:15.973Z,1.50
2022-08-08T20:12:32.619Z,0.90
2022-08-08T20:16:00.309Z,2.70
2022-08-08T20:19:05.182Z,2.30
2022-08-08T20:22:21.015Z,1.23
2022-08-08T20:25:35.425Z,1.92
2022-08-08T20:28:47.427Z,1.02
2022-08-08T20:32:10.482Z,1.25
2022-08-08T20:35:18.408Z,1.05
2022-08-08T20:38:32.303Z,2.03
2022-08-08T20:41:37.576Z,1.00
2022-08-08T20:44:45.897Z,1.75
2022-08-08T20:47:57.750Z,0.90
2022-08-08T20:51:06.113Z,0.75
2022-08-08T20:54:14.226Z,0.65
2022-08-08T20:57:21.952Z,0.88
2022-08-08T21:00:31.682Z,1.10
2022-08-08T21:03:59.771Z,1.33
2022-08-08T21:07:15.810Z,0.60
2022-08-08T21:10:21.328Z,1.13
2022-08-08T21:13:40.706Z,1.00
2022-08-08T21:16:46.877Z,2.83
2022-08-08T21:19:51.321Z,2.28
2022-08-08T21:23:09.495Z,0.80
2022-08-08T21:26:27.006Z,0.63
2022-08-08T21:30:02.887Z,1.17
2022-08-08T21:33:01.125Z,0.65
2022-08-08T21:36:28.251Z,1.10
2022-08-08T21:39:41.501Z,1.05
2022-08-08T21:42:59.451Z,2.15
2022-08-08T21:48:07.085Z,2.08
2022-08-08T21:49:34.252Z,1.38
2022-08-08T21:54:36.674Z,1.95
2022-08-08T21:56:26.975Z,1.50
2022-08-08T22:00:01.565Z,1.73
2022-08-08T22:02:54.036Z,1.77
2022-08-08T22:05:59.348Z,0.88
2022-08-08T22:09:08.336Z,1.88
2022-08-08T22:12:17.010Z,1.92
2022-08-08T22:15:21.795Z,3.05
2022-08-08T22:18:32.812Z,2.00
2022-08-08T22:21:37.605Z,1.65
2022-08-08T22:24:41.999Z,2.28
2022-08-08T22:28:04.054Z,2.67
2022-08-08T22:31:11.579Z,1.95
2022-08-08T22:34:17.608Z,2.13
2022-08-08T22:37:49.078Z,2.35
2022-08-08T22:40:48.975Z,2.85
2022-08-08T22:44:02.359Z,1.55
2022-08-08T22:47:17.458Z,1.50
2022-08-08T22:50:26.906Z,2.28
2022-08-08T22:54:32.497Z,1.20
2022-08-08T22:56:57.319Z,1.92
2022-08-08T23:00:01.981Z,1.42
2022-08-08T23:03:07.034Z,2.15
2022-08-08T23:06:12.522Z,2.45
2022-08-08T23:09:18.180Z,1.92
2022-08-08T23:12:39.440Z,2.63
2022-08-08T23:16:38.461Z,2.30
2022-08-08T23:19:09.466Z,1.63
2022-08-08T23:22:15.103Z,1.73
2022-08-08T23:25:19.959Z,2.47
2022-08-08T23:28:24.458Z,4.20
2022-08-08T23:31:29.357Z,2.63
2022-08-08T23:38:01.109Z,1.60
2022-08-08T23:41:12.258Z,2.25
2022-08-08T23:44:28.525Z,1.75
2022-08-08T23:48:59.930Z,1.45
2022-08-08T23:50:57.712Z,2.30
2022-08-08T23:54:38.986Z,2.83
2022-08-08T23:57:38.706Z,1.55
